Manschnow, Germany

3:30 PM CET on February 13, 2016 (GMT +0100)
Lebus | | Change Station
CLOSE
Current Station
Personal Weather Station
Location: Lebus,
Elevation: 167 ft
Nearby Weather Stations

Elev 167 ft 52.43 °N, 14.53 °E | Updated 24 seconds ago

Partly Cloudy
Partly Cloudy
40.0 °F
Feels Like 40 °F
N
3.0
Wind Variable Wind from ESE

Today
High -- | Low -- °F
--% Chance of Precip.
Yesterday
High -- | Low -- °F
Precip. -- in
Pressure 29.36 in
Visibility 6.2 miles
Clouds Few 2800 ft
Windchill 40 °F
Dew Point 35 °F
Humidity 82%
Rainfall 0.00 in
Snow Depth Not available.
7:23 AM 5:09 PM
Waxing Crescent, 31% visible
METAR EDDB 131420Z 09006KT 070V130 9999 FEW028 06/M01 Q0994 NOSIG
Pressure 29.36 in
Visibility 6.2 miles
Clouds Few 2800 ft
Windchill 40 °F
Dew Point 35 °F
Humidity 82%
Rainfall 0.00 in
Snow Depth Not available.
7:23 AM 5:09 PM
Waxing Crescent, 31% visible
METAR EDDB 131420Z 09006KT 070V130 9999 FEW028 06/M01 Q0994 NOSIG

10-Day Weather Forecast

Almanac

Astronomy

Feb. 13, 2016 Rise Set
Actual Time
Civil Twilight
Nautical Twilight
Astronomical Twilight
Moon
Length of Visible Light
Length of Day
Tomorrow will be .
, % of the Moon is Illuminated

Today's Extremes

Country Highs Country Lows

Community

WunderPhotos

Upload Photos

1,892,558 photos uploaded!

WunderBlog® & News

Nearby

Air Quality

  Air Quality AQ Index Pollutant
Not available.

Snow Depth

Station Depth Elevation

Earthquake Activity

City Distance Mag. Time & Date
Minimum magnitude displayed is 2.5.

Coastal Water Temperatures

Place Temperature

Stations

Nearby Weather Stations

Station Location Temp. Windchill Dew Point Humidity Wind Precip. Elev Updated Type